Walls, Mississippi
Current Conditions -  °F | °C
As of 5:54 PM on Friday 31 Oct 2014 (Local Time) from KMEM Reporting Station
Few Clouds Few Clouds  
Wind Chill: 51°   Ceiling: Unl
Heat Index: 51°   Visibility: 10mi
Dew Point: 21°   Wind: 17mph
Humidity: 31%   Direction: 20°NNE
Pressure: 30.22"   Gusts: 26mph
Location:  34.94°N, 90.09°W
Report Text: KMEM 312254Z 02015G23KT 10SM FEW065 11/M06 A3022 RMK AO2 PK WND 01027/2240 SLP232 T01061061 $
Loading
Personal Weather Stations






























Interactive Weather Map New forecast layout! Learn more

10-Day Weather Forecast

Advertisements
Track Severe Weather on mobile